Time,TemperatureF,DewpointF,PressureIn,WindDirection,WindDirectionDegrees,WindSpeedMPH,WindSpeedGustMPH,Humidity,HourlyPrecipIn,Conditions,Clouds,dailyrainin,SoftwareType,DateUTC
2013-03-20 00:02:00,55.0,36.0,30.19,East,84,3.0,7.0,48,0.00,,,0.00,,2013-03-20 05:02:00,
2013-03-20 00:12:00,55.0,37.0,30.20,NE,44,2.0,6.0,51,0.00,,,0.00,,2013-03-20 05:12:00,
2013-03-20 00:22:00,55.0,37.0,30.20,NE,44,2.0,6.0,51,0.00,,,0.00,,2013-03-20 05:22:00,
2013-03-20 00:32:00,55.0,38.0,30.21,NNE,28,3.0,7.0,53,0.00,,,0.00,,2013-03-20 05:32:00,
2013-03-20 00:42:00,55.0,38.0,30.21,NNE,28,3.0,7.0,53,0.00,,,0.00,,2013-03-20 05:42:00,
2013-03-20 00:52:00,54.0,38.0,30.22,ENE,75,4.0,7.0,54,0.00,,,0.00,,2013-03-20 05:52:00,
2013-03-20 01:02:00,54.0,38.0,30.23,NNE,18,3.0,6.0,54,0.00,,,0.00,,2013-03-20 06:02:00,
2013-03-20 01:12:00,54.0,38.0,30.23,NNE,18,3.0,6.0,54,0.00,,,0.00,,2013-03-20 06:12:00,
2013-03-20 01:22:00,54.0,37.0,30.24,ENE,72,4.0,8.0,53,0.00,,,0.00,,2013-03-20 06:22:00,
2013-03-20 01:32:00,54.0,38.0,30.23,ENE,65,2.0,6.0,54,0.00,,,0.00,,2013-03-20 06:32:00,
2013-03-20 01:42:00,54.0,38.0,30.23,ENE,65,2.0,6.0,54,0.00,,,0.00,,2013-03-20 06:42:00,
2013-03-20 01:52:00,53.0,37.0,30.24,ENE,66,2.0,8.0,54,0.00,,,0.00,,2013-03-20 06:52:00,
2013-03-20 02:02:00,53.0,37.0,30.24,East,98,2.0,6.0,54,0.00,,,0.00,,2013-03-20 07:02:00,
2013-03-20 02:12:00,53.0,37.0,30.24,East,98,2.0,6.0,54,0.00,,,0.00,,2013-03-20 07:12:00,
2013-03-20 02:22:00,53.0,37.0,30.24,ENE,76,1.0,5.0,54,0.00,,,0.00,,2013-03-20 07:22:00,
2013-03-20 02:32:00,53.0,37.0,30.24,ENE,61,2.0,5.0,55,0.00,,,0.00,,2013-03-20 07:32:00,
2013-03-20 02:42:00,53.0,37.0,30.24,ENE,61,2.0,5.0,55,0.00,,,0.00,,2013-03-20 07:42:00,
2013-03-20 02:52:00,53.0,37.0,30.24,NE,37,4.0,10.0,54,0.00,,,0.00,,2013-03-20 07:52:00,
2013-03-20 03:02:00,52.0,36.0,30.24,NNE,25,1.0,6.0,55,0.00,,,0.00,,2013-03-20 08:02:00,
2013-03-20 03:12:00,52.0,36.0,30.24,NNE,25,1.0,6.0,55,0.00,,,0.00,,2013-03-20 08:12:00,
2013-03-20 03:22:00,52.0,36.0,30.24,North,356,2.0,6.0,55,0.00,,,0.00,,2013-03-20 08:22:00,
2013-03-20 03:32:00,51.0,36.0,30.24,NE,36,3.0,7.0,57,0.00,,,0.00,,2013-03-20 08:32:00,
2013-03-20 03:42:00,51.0,36.0,30.24,NE,36,3.0,7.0,57,0.00,,,0.00,,2013-03-20 08:42:00,
2013-03-20 03:52:00,50.0,36.0,30.25,ENE,57,2.0,6.0,59,0.00,,,0.00,,2013-03-20 08:52:00,
2013-03-20 04:02:00,49.0,36.0,30.25,NNE,12,3.0,8.0,61,0.00,,,0.00,,2013-03-20 09:02:00,
2013-03-20 04:12:00,49.0,36.0,30.25,NNE,12,3.0,8.0,61,0.00,,,0.00,,2013-03-20 09:12:00,
2013-03-20 04:22:00,48.0,34.0,30.25,NNW,336,4.0,9.0,59,0.00,,,0.00,,2013-03-20 09:22:00,
2013-03-20 04:33:00,47.0,34.0,30.25,NNE,22,4.0,9.0,60,0.00,,,0.00,,2013-03-20 09:33:00,
2013-03-20 04:43:00,47.0,34.0,30.25,NNE,22,4.0,9.0,60,0.00,,,0.00,,2013-03-20 09:43:00,
2013-03-20 04:52:00,46.0,33.0,30.25,NNE,30,4.0,7.0,61,0.00,,,0.00,,2013-03-20 09:52:00,
2013-03-20 05:03:00,46.0,34.0,30.26,NNE,18,5.0,9.0,62,0.00,,,0.00,,2013-03-20 10:03:00,
2013-03-20 05:12:00,46.0,34.0,30.26,NNE,18,5.0,9.0,62,0.00,,,0.00,,2013-03-20 10:12:00,
2013-03-20 05:23:00,45.0,33.0,30.26,North,8,2.0,7.0,62,0.00,,,0.00,,2013-03-20 10:23:00,
2013-03-20 05:32:00,44.0,31.0,30.26,East,79,3.0,6.0,61,0.00,,,0.00,,2013-03-20 10:32:00,
2013-03-20 05:42:00,44.0,31.0,30.26,East,79,3.0,6.0,61,0.00,,,0.00,,2013-03-20 10:42:00,
2013-03-20 05:52:00,43.0,30.0,30.27,NNE,16,2.0,6.0,61,0.00,,,0.00,,2013-03-20 10:52:00,
2013-03-20 06:03:00,43.0,30.0,30.28,NNE,29,2.0,8.0,61,0.00,,,0.00,,2013-03-20 11:03:00,
2013-03-20 06:12:00,43.0,30.0,30.28,NNE,29,2.0,8.0,61,0.00,,,0.00,,2013-03-20 11:12:00,
2013-03-20 06:22:00,43.0,30.0,30.29,ENE,63,4.0,6.0,61,0.00,,,0.00,,2013-03-20 11:22:00,
2013-03-20 06:32:00,42.0,30.0,30.29,NNW,342,1.0,6.0,62,0.00,,,0.00,,2013-03-20 11:32:00,
2013-03-20 06:42:00,42.0,30.0,30.29,NNW,342,1.0,6.0,62,0.00,,,0.00,,2013-03-20 11:42:00,
2013-03-20 06:52:00,41.0,29.0,30.30,NE,34,1.0,5.0,63,0.00,,,0.00,,2013-03-20 11:52:00,
2013-03-20 07:02:00,41.0,29.0,30.31,North,5,2.0,5.0,63,0.00,,,0.00,,2013-03-20 12:02:00,
2013-03-20 07:12:00,41.0,29.0,30.31,North,5,2.0,5.0,63,0.00,,,0.00,,2013-03-20 12:12:00,
2013-03-20 07:22:00,41.0,30.0,30.32,NNW,330,0.0,4.0,64,0.00,,,0.00,,2013-03-20 12:22:00,
2013-03-20 07:32:00,40.0,29.0,30.32,North,358,1.0,2.0,65,0.00,,,0.00,,2013-03-20 12:32:00,
2013-03-20 07:42:00,40.0,29.0,30.32,North,358,1.0,2.0,65,0.00,,,0.00,,2013-03-20 12:42:00,
2013-03-20 07:52:00,40.0,30.0,30.32,NW,316,1.0,3.0,66,0.00,,,0.00,,2013-03-20 12:52:00,
2013-03-20 08:03:00,40.0,30.0,30.33,NNW,340,1.0,3.0,66,0.00,,,0.00,,2013-03-20 13:03:00,
2013-03-20 08:12:00,40.0,30.0,30.33,NNW,340,1.0,3.0,66,0.00,,,0.00,,2013-03-20 13:12:00,
2013-03-20 08:22:00,41.0,30.0,30.33,NNW,328,2.0,4.0,65,0.00,,,0.00,,2013-03-20 13:22:00,
2013-03-20 08:32:00,41.0,29.0,30.34,North,356,2.0,4.0,63,0.00,,,0.00,,2013-03-20 13:32:00,
2013-03-20 08:42:00,41.0,29.0,30.34,North,356,2.0,4.0,63,0.00,,,0.00,,2013-03-20 13:42:00,
2013-03-20 08:52:00,42.0,30.0,30.35,NW,307,2.0,4.0,61,0.00,,,0.00,,2013-03-20 13:52:00,
2013-03-20 09:03:00,44.0,31.0,30.35,NNE,22,2.0,5.0,60,0.00,,,0.00,,2013-03-20 14:03:00,
2013-03-20 09:12:00,44.0,31.0,30.35,NNE,22,2.0,5.0,60,0.00,,,0.00,,2013-03-20 14:12:00,
2013-03-20 09:23:00,45.0,32.0,30.36,North,356,1.0,5.0,59,0.00,,,0.00,,2013-03-20 14:23:00,
2013-03-20 09:33:00,46.0,32.0,30.37,North,356,2.0,4.0,58,0.00,,,0.00,,2013-03-20 14:33:00,
2013-03-20 09:42:00,46.0,32.0,30.37,North,356,2.0,4.0,58,0.00,,,0.00,,2013-03-20 14:42:00,
2013-03-20 09:52:00,47.0,31.0,30.37,NNE,22,3.0,5.0,53,0.00,,,0.00,,2013-03-20 14:52:00,
2013-03-20 10:02:00,48.0,32.0,30.37,NNE,29,2.0,5.0,53,0.00,,,0.00,,2013-03-20 15:02:00,
2013-03-20 10:12:00,49.0,33.0,30.37,NNW,343,2.0,5.0,53,0.00,,,0.00,,2013-03-20 15:12:00,
2013-03-20 10:22:00,49.0,33.0,30.37,NNW,343,2.0,5.0,53,0.00,,,0.00,,2013-03-20 15:22:00,
2013-03-20 10:33:00,50.0,33.0,30.37,North,357,1.0,5.0,52,0.00,,,0.00,,2013-03-20 15:33:00,
2013-03-20 10:43:00,50.0,33.0,30.37,North,357,1.0,5.0,52,0.00,,,0.00,,2013-03-20 15:43:00,
2013-03-20 10:52:00,52.0,34.0,30.37,NNW,336,1.0,4.0,50,0.00,,,0.00,,2013-03-20 15:52:00,
2013-03-20 11:03:00,53.0,33.0,30.37,NNE,27,3.0,6.0,47,0.00,,,0.00,,2013-03-20 16:03:00,
2013-03-20 11:12:00,53.0,33.0,30.37,NNE,27,3.0,6.0,47,0.00,,,0.00,,2013-03-20 16:12:00,
2013-03-20 11:23:00,55.0,35.0,30.37,NNW,334,3.0,6.0,46,0.00,,,0.00,,2013-03-20 16:23:00,
2013-03-20 11:33:00,56.0,32.0,30.37,NE,46,5.0,9.0,40,0.00,,,0.00,,2013-03-20 16:33:00,
2013-03-20 11:42:00,56.0,32.0,30.37,NE,46,5.0,9.0,40,0.00,,,0.00,,2013-03-20 16:42:00,
2013-03-20 11:52:00,56.0,32.0,30.37,NNE,29,5.0,11.0,40,0.00,,,0.00,,2013-03-20 16:52:00,
2013-03-20 12:03:00,56.0,31.0,30.36,ENE,65,4.0,8.0,39,0.00,,,0.00,,2013-03-20 17:03:00,
2013-03-20 12:12:00,56.0,31.0,30.36,ENE,65,4.0,8.0,39,0.00,,,0.00,,2013-03-20 17:12:00,
2013-03-20 12:22:00,57.0,32.0,30.36,NNE,27,3.0,8.0,38,0.00,,,0.00,,2013-03-20 17:22:00,
2013-03-20 12:32:00,58.0,32.0,30.35,ENE,63,4.0,10.0,37,0.00,,,0.00,,2013-03-20 17:32:00,
2013-03-20 12:42:00,58.0,32.0,30.35,ENE,63,4.0,10.0,37,0.00,,,0.00,,2013-03-20 17:42:00,
2013-03-20 12:52:00,59.0,32.0,30.35,East,98,2.0,8.0,36,0.00,,,0.00,,2013-03-20 17:52:00,
2013-03-20 13:02:00,61.0,31.0,30.34,NNE,26,4.0,10.0,32,0.00,,,0.00,,2013-03-20 18:02:00,
2013-03-20 13:12:00,61.0,31.0,30.34,NNE,26,4.0,10.0,32,0.00,,,0.00,,2013-03-20 18:12:00,
2013-03-20 13:22:00,60.0,29.0,30.33,North,349,2.0,8.0,31,0.00,,,0.00,,2013-03-20 18:22:00,
2013-03-20 13:33:00,61.0,30.0,30.32,NNE,27,3.0,9.0,31,0.00,,,0.00,,2013-03-20 18:33:00,
2013-03-20 13:42:00,61.0,30.0,30.32,NNE,27,3.0,9.0,31,0.00,,,0.00,,2013-03-20 18:42:00,
2013-03-20 13:52:00,61.0,29.0,30.32,NE,37,3.0,6.0,29,0.00,,,0.00,,2013-03-20 18:52:00,
2013-03-20 14:02:00,61.0,29.0,30.31,NNE,33,3.0,9.0,29,0.00,,,0.00,,2013-03-20 19:02:00,
2013-03-20 14:12:00,61.0,29.0,30.31,NNE,33,3.0,9.0,29,0.00,,,0.00,,2013-03-20 19:12:00,
2013-03-20 14:22:00,62.0,29.0,30.29,ESE,114,3.0,7.0,29,0.00,,,0.00,,2013-03-20 19:22:00,
2013-03-20 14:32:00,62.0,29.0,30.28,NW,304,3.0,7.0,28,0.00,,,0.00,,2013-03-20 19:32:00,
2013-03-20 14:42:00,62.0,29.0,30.28,NW,304,3.0,7.0,28,0.00,,,0.00,,2013-03-20 19:42:00,
2013-03-20 14:52:00,62.0,29.0,30.27,NW,326,2.0,9.0,28,0.00,,,0.00,,2013-03-20 19:52:00,
2013-03-20 15:02:00,63.0,29.0,30.26,NE,44,6.0,9.0,27,0.00,,,0.00,,2013-03-20 20:02:00,
2013-03-20 15:13:00,63.0,29.0,30.26,NE,44,6.0,9.0,27,0.00,,,0.00,,2013-03-20 20:13:00,
2013-03-20 15:22:00,63.0,29.0,30.25,NE,53,2.0,9.0,27,0.00,,,0.00,,2013-03-20 20:22:00,
2013-03-20 15:32:00,63.0,29.0,30.23,NNE,32,1.0,4.0,28,0.00,,,0.00,,2013-03-20 20:32:00,
2013-03-20 15:42:00,63.0,29.0,30.23,NNE,32,1.0,4.0,28,0.00,,,0.00,,2013-03-20 20:42:00,
2013-03-20 15:52:00,64.0,28.0,30.22,WNW,295,2.0,9.0,26,0.00,,,0.00,,2013-03-20 20:52:00,
2013-03-20 16:02:00,63.0,28.0,30.21,NE,46,4.0,8.0,26,0.00,,,0.00,,2013-03-20 21:02:00,
2013-03-20 16:12:00,63.0,28.0,30.21,NE,46,4.0,8.0,26,0.00,,,0.00,,2013-03-20 21:12:00,
2013-03-20 16:22:00,63.0,28.0,30.20,WSW,248,0.0,4.0,26,0.00,,,0.00,,2013-03-20 21:22:00,
2013-03-20 16:33:00,63.0,28.0,30.19,NNE,30,6.0,12.0,26,0.00,,,0.00,,2013-03-20 21:33:00,
2013-03-20 16:42:00,63.0,28.0,30.19,NNE,30,6.0,12.0,26,0.00,,,0.00,,2013-03-20 21:42:00,
2013-03-20 16:52:00,63.0,28.0,30.19,NNE,30,6.0,12.0,26,0.00,,,0.00,,2013-03-20 21:52:00,
2013-03-20 17:03:00,63.0,29.0,30.18,North,5,1.0,6.0,27,0.00,,,0.00,,2013-03-20 22:03:00,
2013-03-20 17:12:00,63.0,29.0,30.18,North,5,1.0,6.0,27,0.00,,,0.00,,2013-03-20 22:12:00,
2013-03-20 17:23:00,64.0,27.0,30.18,NE,39,1.0,6.0,25,0.00,,,0.00,,2013-03-20 22:23:00,
2013-03-20 17:33:00,64.0,28.0,30.17,NNE,13,0.0,3.0,26,0.00,,,0.00,,2013-03-20 22:33:00,
2013-03-20 17:42:00,64.0,28.0,30.17,NNE,13,0.0,3.0,26,0.00,,,0.00,,2013-03-20 22:42:00,
2013-03-20 17:52:00,63.0,27.0,30.16,North,6,1.0,6.0,25,0.00,,,0.00,,2013-03-20 22:52:00,
2013-03-20 18:02:00,63.0,27.0,30.15,NE,41,1.0,3.0,25,0.00,,,0.00,,2013-03-20 23:02:00,
2013-03-20 18:12:00,63.0,27.0,30.15,NE,41,1.0,3.0,25,0.00,,,0.00,,2013-03-20 23:12:00,
2013-03-20 18:22:00,62.0,26.0,30.14,SW,226,0.0,6.0,25,0.00,,,0.00,,2013-03-20 23:22:00,
2013-03-20 18:32:00,63.0,28.0,30.14,ENE,63,3.0,5.0,26,0.00,,,0.00,,2013-03-20 23:32:00,
2013-03-20 18:42:00,63.0,28.0,30.14,ENE,63,3.0,5.0,26,0.00,,,0.00,,2013-03-20 23:42:00,
2013-03-20 18:52:00,62.0,29.0,30.14,East,99,0.0,5.0,28,0.00,,,0.00,,2013-03-20 23:52:00,
2013-03-20 19:02:00,61.0,28.0,30.13,ENE,68,2.0,4.0,28,0.00,,,0.00,,2013-03-21 00:02:00,
2013-03-20 19:12:00,61.0,28.0,30.13,ENE,68,2.0,4.0,28,0.00,,,0.00,,2013-03-21 00:12:00,
2013-03-20 19:23:00,61.0,29.0,30.12,South,169,0.0,3.0,30,0.00,,,0.00,,2013-03-21 00:23:00,
2013-03-20 19:32:00,60.0,29.0,30.13,East,96,0.0,3.0,31,0.00,,,0.00,,2013-03-21 00:32:00,
2013-03-20 19:42:00,60.0,29.0,30.13,East,96,0.0,3.0,31,0.00,,,0.00,,2013-03-21 00:42:00,
2013-03-20 19:52:00,59.0,28.0,30.12,ENE,71,0.0,3.0,31,0.00,,,0.00,,2013-03-21 00:52:00,
2013-03-20 20:02:00,58.0,29.0,30.12,East,95,0.0,2.0,33,0.00,,,0.00,,2013-03-21 01:02:00,
2013-03-20 20:12:00,58.0,29.0,30.12,East,95,0.0,2.0,33,0.00,,,0.00,,2013-03-21 01:12:00,
2013-03-20 20:22:00,57.0,29.0,30.12,East,86,0.0,2.0,34,0.00,,,0.00,,2013-03-21 01:22:00,
2013-03-20 20:32:00,57.0,30.0,30.11,ENE,76,1.0,3.0,35,0.00,,,0.00,,2013-03-21 01:32:00,
2013-03-20 20:42:00,57.0,30.0,30.11,ENE,76,1.0,3.0,35,0.00,,,0.00,,2013-03-21 01:42:00,
2013-03-20 20:52:00,55.0,29.0,30.11,ESE,105,0.0,2.0,37,0.00,,,0.00,,2013-03-21 01:52:00,
2013-03-20 21:02:00,54.0,30.0,30.10,ESE,115,0.0,2.0,39,0.00,,,0.00,,2013-03-21 02:02:00,
2013-03-20 21:12:00,54.0,30.0,30.10,ESE,115,0.0,2.0,39,0.00,,,0.00,,2013-03-21 02:12:00,
2013-03-20 21:22:00,53.0,29.0,30.10,ESE,109,0.0,1.0,40,0.00,,,0.00,,2013-03-21 02:22:00,
2013-03-20 21:33:00,52.0,30.0,30.09,SE,139,0.0,2.0,42,0.00,,,0.00,,2013-03-21 02:33:00,
2013-03-20 21:42:00,52.0,30.0,30.09,SE,139,0.0,2.0,42,0.00,,,0.00,,2013-03-21 02:42:00,
2013-03-20 21:51:00,52.0,30.0,30.09,SE,139,0.0,2.0,42,0.00,,,0.00,,2013-03-21 02:51:00,
2013-03-20 22:02:00,51.0,30.0,30.09,ESE,115,0.0,1.0,44,0.00,,,0.00,,2013-03-21 03:02:00,
2013-03-20 22:12:00,51.0,30.0,30.09,ESE,115,0.0,1.0,44,0.00,,,0.00,,2013-03-21 03:12:00,
2013-03-20 22:22:00,50.0,30.0,30.09,ESE,120,0.0,1.0,46,0.00,,,0.00,,2013-03-21 03:22:00,
2013-03-20 22:33:00,49.0,30.0,30.09,ESE,120,0.0,0.0,48,0.00,,,0.00,,2013-03-21 03:33:00,
2013-03-20 22:43:00,49.0,30.0,30.09,ESE,120,0.0,0.0,48,0.00,,,0.00,,2013-03-21 03:43:00,
2013-03-20 22:53:00,49.0,30.0,30.09,East,84,1.0,2.0,48,0.00,,,0.00,,2013-03-21 03:53:00,
2013-03-20 23:03:00,49.0,31.0,30.09,ESE,105,0.0,1.0,49,0.00,,,0.00,,2013-03-21 04:03:00,
2013-03-20 23:13:00,49.0,31.0,30.09,ESE,105,0.0,1.0,49,0.00,,,0.00,,2013-03-21 04:13:00,
2013-03-20 23:23:00,48.0,29.0,30.08,East,94,1.0,2.0,48,0.00,,,0.00,,2013-03-21 04:23:00,
2013-03-20 23:33:00,48.0,30.0,30.07,ESE,104,1.0,2.0,49,0.00,,,0.00,,2013-03-21 04:33:00,
2013-03-20 23:43:00,48.0,30.0,30.07,ESE,104,1.0,2.0,49,0.00,,,0.00,,2013-03-21 04:43:00,
2013-03-20 23:52:00,49.0,31.0,30.07,ENE,71,3.0,5.0,50,0.00,,,0.00,,2013-03-21 04:52:00,